sensor_id;sensor_type;location;lat;lon;timestamp;P1;durP1;ratioP1;P2;durP2;ratioP2
71464;SDS011;59274;49.874;9.154;2022-12-29T00:02:09;3.90;;;1.23;;
71464;SDS011;59274;49.874;9.154;2022-12-29T00:04:35;4.60;;;1.60;;
71464;SDS011;59274;49.874;9.154;2022-12-29T00:07:00;6.23;;;1.40;;
71464;SDS011;59274;49.874;9.154;2022-12-29T00:09:26;3.20;;;1.20;;
71464;SDS011;59274;49.874;9.154;2022-12-29T00:11:51;4.30;;;1.50;;
71464;SDS011;59274;49.874;9.154;2022-12-29T00:14:17;3.77;;;1.10;;
71464;SDS011;59274;49.874;9.154;2022-12-29T00:17:01;4.00;;;1.60;;
71464;SDS011;59274;49.874;9.154;2022-12-29T00:19:27;4.13;;;1.20;;
71464;SDS011;59274;49.874;9.154;2022-12-29T00:22:13;2.50;;;1.30;;
71464;SDS011;59274;49.874;9.154;2022-12-29T00:24:57;3.53;;;1.42;;
71464;SDS011;59274;49.874;9.154;2022-12-29T00:27:45;3.88;;;1.40;;
71464;SDS011;59274;49.874;9.154;2022-12-29T00:30:29;7.05;;;1.33;;
71464;SDS011;59274;49.874;9.154;2022-12-29T00:33:14;4.83;;;1.60;;
71464;SDS011;59274;49.874;9.154;2022-12-29T00:36:16;2.90;;;1.40;;
71464;SDS011;59274;49.874;9.154;2022-12-29T00:38:55;3.20;;;1.23;;
71464;SDS011;59274;49.874;9.154;2022-12-29T00:41:43;3.35;;;1.35;;
71464;SDS011;59274;49.874;9.154;2022-12-29T00:44:26;3.35;;;1.25;;
71464;SDS011;59274;49.874;9.154;2022-12-29T00:46:52;4.27;;;1.27;;
71464;SDS011;59274;49.874;9.154;2022-12-29T00:49:17;2.73;;;1.30;;
71464;SDS011;59274;49.874;9.154;2022-12-29T00:51:55;5.10;;;1.33;;
71464;SDS011;59274;49.874;9.154;2022-12-29T00:54:32;2.58;;;1.05;;
71464;SDS011;59274;49.874;9.154;2022-12-29T00:57:00;3.97;;;1.43;;
71464;SDS011;59274;49.874;9.154;2022-12-29T00:59:27;2.80;;;1.30;;
71464;SDS011;59274;49.874;9.154;2022-12-29T01:01:56;2.80;;;1.20;;
71464;SDS011;59274;49.874;9.154;2022-12-29T01:04:22;4.80;;;1.30;;
71464;SDS011;59274;49.874;9.154;2022-12-29T01:06:49;3.45;;;1.25;;
71464;SDS011;59274;49.874;9.154;2022-12-29T01:09:15;4.13;;;1.20;;
71464;SDS011;59274;49.874;9.154;2022-12-29T01:12:00;3.53;;;1.58;;
71464;SDS011;59274;49.874;9.154;2022-12-29T01:14:25;4.50;;;1.33;;
71464;SDS011;59274;49.874;9.154;2022-12-29T01:16:52;4.13;;;1.38;;
71464;SDS011;59274;49.874;9.154;2022-12-29T01:19:17;4.38;;;1.65;;
71464;SDS011;59274;49.874;9.154;2022-12-29T01:21:44;3.03;;;1.30;;
71464;SDS011;59274;49.874;9.154;2022-12-29T01:24:10;3.10;;;1.30;;
71464;SDS011;59274;49.874;9.154;2022-12-29T01:26:35;3.03;;;1.33;;
71464;SDS011;59274;49.874;9.154;2022-12-29T01:29:01;2.78;;;1.13;;
71464;SDS011;59274;49.874;9.154;2022-12-29T01:31:26;4.60;;;1.20;;
71464;SDS011;59274;49.874;9.154;2022-12-29T01:33:51;4.30;;;1.20;;
71464;SDS011;59274;49.874;9.154;2022-12-29T01:36:18;4.30;;;1.20;;
71464;SDS011;59274;49.874;9.154;2022-12-29T01:38:44;3.35;;;1.10;;
71464;SDS011;59274;49.874;9.154;2022-12-29T01:41:11;5.30;;;1.30;;
71464;SDS011;59274;49.874;9.154;2022-12-29T01:46:52;4.22;;;1.30;;
71464;SDS011;59274;49.874;9.154;2022-12-29T01:48:59;3.45;;;1.10;;
71464;SDS011;59274;49.874;9.154;2022-12-29T01:51:43;5.93;;;1.50;;
71464;SDS011;59274;49.874;9.154;2022-12-29T01:54:54;2.55;;;1.08;;
71464;SDS011;59274;49.874;9.154;2022-12-29T01:57:19;6.07;;;1.40;;
71464;SDS011;59274;49.874;9.154;2022-12-29T01:59:52;4.53;;;1.67;;
71464;SDS011;59274;49.874;9.154;2022-12-29T02:02:21;4.22;;;1.50;;
71464;SDS011;59274;49.874;9.154;2022-12-29T02:04:47;3.58;;;1.10;;
71464;SDS011;59274;49.874;9.154;2022-12-29T02:07:19;4.83;;;1.40;;
71464;SDS011;59274;49.874;9.154;2022-12-29T02:09:48;3.00;;;1.10;;
71464;SDS011;59274;49.874;9.154;2022-12-29T02:12:14;4.85;;;1.63;;
71464;SDS011;59274;49.874;9.154;2022-12-29T02:14:40;5.13;;;1.58;;
71464;SDS011;59274;49.874;9.154;2022-12-29T02:25:50;2.50;;;1.20;;
71464;SDS011;59274;49.874;9.154;2022-12-29T02:31:17;3.30;;;1.05;;
71464;SDS011;59274;49.874;9.154;2022-12-29T02:33:58;4.03;;;1.00;;
71464;SDS011;59274;49.874;9.154;2022-12-29T02:36:45;2.85;;;1.10;;
71464;SDS011;59274;49.874;9.154;2022-12-29T02:49:51;1.48;;;0.90;;
71464;SDS011;59274;49.874;9.154;2022-12-29T02:52:31;2.67;;;1.10;;
71464;SDS011;59274;49.874;9.154;2022-12-29T02:55:03;3.33;;;1.20;;
71464;SDS011;59274;49.874;9.154;2022-12-29T02:57:31;2.10;;;0.90;;
71464;SDS011;59274;49.874;9.154;2022-12-29T03:11:00;2.17;;;1.17;;
71464;SDS011;59274;49.874;9.154;2022-12-29T03:14:43;2.35;;;1.00;;
71464;SDS011;59274;49.874;9.154;2022-12-29T03:20:13;1.83;;;1.07;;
71464;SDS011;59274;49.874;9.154;2022-12-29T03:22:44;3.15;;;1.25;;
71464;SDS011;59274;49.874;9.154;2022-12-29T03:27:55;3.08;;;1.30;;
71464;SDS011;59274;49.874;9.154;2022-12-29T03:30:24;2.47;;;1.02;;
71464;SDS011;59274;49.874;9.154;2022-12-29T03:32:57;6.67;;;1.37;;
71464;SDS011;59274;49.874;9.154;2022-12-29T03:35:27;1.92;;;1.10;;
71464;SDS011;59274;49.874;9.154;2022-12-29T03:37:58;3.38;;;1.10;;
71464;SDS011;59274;49.874;9.154;2022-12-29T03:40:28;3.63;;;1.02;;
71464;SDS011;59274;49.874;9.154;2022-12-29T03:42:56;2.42;;;1.17;;
71464;SDS011;59274;49.874;9.154;2022-12-29T03:45:22;3.07;;;1.07;;
71464;SDS011;59274;49.874;9.154;2022-12-29T03:47:48;4.20;;;1.40;;
71464;SDS011;59274;49.874;9.154;2022-12-29T03:50:13;4.07;;;1.50;;
71464;SDS011;59274;49.874;9.154;2022-12-29T03:52:39;2.10;;;1.00;;
71464;SDS011;59274;49.874;9.154;2022-12-29T03:55:05;3.17;;;1.10;;
71464;SDS011;59274;49.874;9.154;2022-12-29T03:57:31;4.05;;;1.30;;
71464;SDS011;59274;49.874;9.154;2022-12-29T03:59:56;2.97;;;1.10;;
71464;SDS011;59274;49.874;9.154;2022-12-29T04:02:22;2.80;;;0.93;;
71464;SDS011;59274;49.874;9.154;2022-12-29T04:04:48;5.40;;;1.45;;
71464;SDS011;59274;49.874;9.154;2022-12-29T04:07:14;2.83;;;1.20;;
71464;SDS011;59274;49.874;9.154;2022-12-29T04:09:40;3.80;;;1.30;;
71464;SDS011;59274;49.874;9.154;2022-12-29T04:12:05;2.03;;;1.10;;
71464;SDS011;59274;49.874;9.154;2022-12-29T04:14:30;2.85;;;1.13;;
71464;SDS011;59274;49.874;9.154;2022-12-29T04:16:56;3.23;;;1.20;;
71464;SDS011;59274;49.874;9.154;2022-12-29T04:19:21;4.63;;;1.27;;
71464;SDS011;59274;49.874;9.154;2022-12-29T04:21:47;4.00;;;1.10;;
71464;SDS011;59274;49.874;9.154;2022-12-29T04:24:12;4.47;;;1.20;;
71464;SDS011;59274;49.874;9.154;2022-12-29T04:26:38;2.03;;;0.98;;
71464;SDS011;59274;49.874;9.154;2022-12-29T04:29:03;5.40;;;1.30;;
71464;SDS011;59274;49.874;9.154;2022-12-29T04:31:29;3.33;;;1.20;;
71464;SDS011;59274;49.874;9.154;2022-12-29T04:33:54;1.93;;;1.03;;
71464;SDS011;59274;49.874;9.154;2022-12-29T04:36:22;4.80;;;1.13;;
71464;SDS011;59274;49.874;9.154;2022-12-29T04:38:47;2.80;;;1.20;;
71464;SDS011;59274;49.874;9.154;2022-12-29T04:41:13;2.17;;;1.27;;
71464;SDS011;59274;49.874;9.154;2022-12-29T04:43:38;3.07;;;1.07;;
71464;SDS011;59274;49.874;9.154;2022-12-29T04:46:04;2.97;;;1.20;;
71464;SDS011;59274;49.874;9.154;2022-12-29T04:48:29;4.57;;;1.20;;
71464;SDS011;59274;49.874;9.154;2022-12-29T04:50:55;3.80;;;1.20;;
71464;SDS011;59274;49.874;9.154;2022-12-29T04:53:20;2.63;;;0.80;;
71464;SDS011;59274;49.874;9.154;2022-12-29T04:55:49;2.93;;;1.00;;
71464;SDS011;59274;49.874;9.154;2022-12-29T04:58:16;2.70;;;1.10;;
71464;SDS011;59274;49.874;9.154;2022-12-29T05:00:42;5.38;;;1.33;;
71464;SDS011;59274;49.874;9.154;2022-12-29T05:03:07;3.43;;;1.20;;
71464;SDS011;59274;49.874;9.154;2022-12-29T05:05:33;2.93;;;1.00;;
71464;SDS011;59274;49.874;9.154;2022-12-29T05:07:58;2.67;;;1.10;;
71464;SDS011;59274;49.874;9.154;2022-12-29T05:10:23;3.75;;;1.20;;
71464;SDS011;59274;49.874;9.154;2022-12-29T05:12:49;5.28;;;1.20;;
71464;SDS011;59274;49.874;9.154;2022-12-29T05:15:14;4.33;;;1.43;;
71464;SDS011;59274;49.874;9.154;2022-12-29T05:17:40;2.47;;;1.00;;
71464;SDS011;59274;49.874;9.154;2022-12-29T05:20:05;2.90;;;1.00;;
71464;SDS011;59274;49.874;9.154;2022-12-29T05:22:31;2.90;;;1.08;;
71464;SDS011;59274;49.874;9.154;2022-12-29T05:24:57;2.03;;;1.03;;
71464;SDS011;59274;49.874;9.154;2022-12-29T05:27:25;3.87;;;1.20;;
71464;SDS011;59274;49.874;9.154;2022-12-29T05:29:50;2.75;;;1.00;;
71464;SDS011;59274;49.874;9.154;2022-12-29T05:32:16;2.80;;;1.40;;
71464;SDS011;59274;49.874;9.154;2022-12-29T05:34:41;2.63;;;1.10;;
71464;SDS011;59274;49.874;9.154;2022-12-29T05:37:06;3.50;;;1.17;;
71464;SDS011;59274;49.874;9.154;2022-12-29T05:39:32;2.83;;;1.10;;
71464;SDS011;59274;49.874;9.154;2022-12-29T05:41:57;3.80;;;0.90;;
71464;SDS011;59274;49.874;9.154;2022-12-29T05:44:23;2.43;;;1.03;;
71464;SDS011;59274;49.874;9.154;2022-12-29T05:46:48;3.72;;;1.10;;
71464;SDS011;59274;49.874;9.154;2022-12-29T05:49:14;2.50;;;1.00;;
71464;SDS011;59274;49.874;9.154;2022-12-29T05:51:39;1.63;;;0.90;;
71464;SDS011;59274;49.874;9.154;2022-12-29T05:54:05;2.83;;;1.30;;
71464;SDS011;59274;49.874;9.154;2022-12-29T05:56:30;3.05;;;1.00;;
71464;SDS011;59274;49.874;9.154;2022-12-29T05:58:55;2.57;;;1.20;;
71464;SDS011;59274;49.874;9.154;2022-12-29T06:01:21;2.33;;;0.90;;
71464;SDS011;59274;49.874;9.154;2022-12-29T06:03:46;2.80;;;1.10;;
71464;SDS011;59274;49.874;9.154;2022-12-29T06:06:12;2.33;;;0.97;;
71464;SDS011;59274;49.874;9.154;2022-12-29T06:08:37;1.65;;;0.90;;
71464;SDS011;59274;49.874;9.154;2022-12-29T06:11:02;3.40;;;1.17;;
71464;SDS011;59274;49.874;9.154;2022-12-29T06:13:28;1.67;;;1.10;;
71464;SDS011;59274;49.874;9.154;2022-12-29T06:15:53;4.23;;;1.03;;
71464;SDS011;59274;49.874;9.154;2022-12-29T06:18:19;1.42;;;0.98;;
71464;SDS011;59274;49.874;9.154;2022-12-29T06:20:44;2.80;;;0.97;;
71464;SDS011;59274;49.874;9.154;2022-12-29T06:23:10;3.43;;;1.00;;
71464;SDS011;59274;49.874;9.154;2022-12-29T06:25:37;3.55;;;0.90;;
71464;SDS011;59274;49.874;9.154;2022-12-29T06:28:02;3.53;;;1.30;;
71464;SDS011;59274;49.874;9.154;2022-12-29T06:30:28;2.85;;;1.02;;
71464;SDS011;59274;49.874;9.154;2022-12-29T06:32:53;2.00;;;0.97;;
71464;SDS011;59274;49.874;9.154;2022-12-29T06:35:19;2.90;;;1.02;;
71464;SDS011;59274;49.874;9.154;2022-12-29T06:37:47;2.22;;;0.73;;
71464;SDS011;59274;49.874;9.154;2022-12-29T06:40:12;2.13;;;1.17;;
71464;SDS011;59274;49.874;9.154;2022-12-29T06:42:38;3.00;;;1.00;;
71464;SDS011;59274;49.874;9.154;2022-12-29T06:45:03;2.20;;;1.00;;
71464;SDS011;59274;49.874;9.154;2022-12-29T06:47:29;3.03;;;1.20;;
71464;SDS011;59274;49.874;9.154;2022-12-29T06:49:55;2.57;;;1.10;;
71464;SDS011;59274;49.874;9.154;2022-12-29T06:52:20;1.93;;;0.83;;
71464;SDS011;59274;49.874;9.154;2022-12-29T06:54:45;1.90;;;0.93;;
71464;SDS011;59274;49.874;9.154;2022-12-29T06:57:11;2.80;;;1.38;;
71464;SDS011;59274;49.874;9.154;2022-12-29T06:59:36;2.50;;;1.20;;
71464;SDS011;59274;49.874;9.154;2022-12-29T07:02:02;3.60;;;1.13;;
71464;SDS011;59274;49.874;9.154;2022-12-29T07:04:27;3.60;;;1.23;;
71464;SDS011;59274;49.874;9.154;2022-12-29T07:06:53;3.67;;;1.10;;
71464;SDS011;59274;49.874;9.154;2022-12-29T07:09:20;4.45;;;1.13;;
71464;SDS011;59274;49.874;9.154;2022-12-29T07:11:45;3.87;;;1.33;;
71464;SDS011;59274;49.874;9.154;2022-12-29T07:14:11;2.33;;;1.20;;
71464;SDS011;59274;49.874;9.154;2022-12-29T07:16:36;5.43;;;1.40;;
71464;SDS011;59274;49.874;9.154;2022-12-29T07:19:02;3.17;;;1.40;;
71464;SDS011;59274;49.874;9.154;2022-12-29T07:21:28;1.98;;;0.98;;
71464;SDS011;59274;49.874;9.154;2022-12-29T07:23:53;3.93;;;1.17;;
71464;SDS011;59274;49.874;9.154;2022-12-29T07:26:19;5.22;;;1.30;;
71464;SDS011;59274;49.874;9.154;2022-12-29T07:28:44;4.63;;;1.40;;
71464;SDS011;59274;49.874;9.154;2022-12-29T07:31:14;2.63;;;1.20;;
71464;SDS011;59274;49.874;9.154;2022-12-29T07:33:41;2.33;;;1.33;;
71464;SDS011;59274;49.874;9.154;2022-12-29T07:36:08;2.28;;;1.10;;
71464;SDS011;59274;49.874;9.154;2022-12-29T07:38:34;2.17;;;1.08;;
71464;SDS011;59274;49.874;9.154;2022-12-29T07:40:59;6.00;;;1.20;;
71464;SDS011;59274;49.874;9.154;2022-12-29T07:43:25;4.17;;;1.40;;
71464;SDS011;59274;49.874;9.154;2022-12-29T07:45:52;2.80;;;1.20;;
71464;SDS011;59274;49.874;9.154;2022-12-29T07:48:17;2.67;;;1.20;;
71464;SDS011;59274;49.874;9.154;2022-12-29T07:50:42;5.53;;;1.43;;
71464;SDS011;59274;49.874;9.154;2022-12-29T07:53:08;3.97;;;1.15;;
71464;SDS011;59274;49.874;9.154;2022-12-29T07:55:33;5.63;;;1.40;;
71464;SDS011;59274;49.874;9.154;2022-12-29T07:57:59;4.10;;;1.20;;
71464;SDS011;59274;49.874;9.154;2022-12-29T08:00:24;5.50;;;1.47;;
71464;SDS011;59274;49.874;9.154;2022-12-29T08:02:50;5.15;;;1.55;;
71464;SDS011;59274;49.874;9.154;2022-12-29T08:05:15;3.27;;;1.33;;
71464;SDS011;59274;49.874;9.154;2022-12-29T08:07:44;2.35;;;1.05;;
71464;SDS011;59274;49.874;9.154;2022-12-29T08:10:11;3.40;;;1.50;;
71464;SDS011;59274;49.874;9.154;2022-12-29T08:12:37;5.97;;;1.40;;
71464;SDS011;59274;49.874;9.154;2022-12-29T08:15:03;4.25;;;1.30;;
71464;SDS011;59274;49.874;9.154;2022-12-29T08:17:29;3.60;;;1.50;;
71464;SDS011;59274;49.874;9.154;2022-12-29T08:19:55;4.57;;;1.50;;
71464;SDS011;59274;49.874;9.154;2022-12-29T08:22:20;5.10;;;1.70;;
71464;SDS011;59274;49.874;9.154;2022-12-29T08:24:46;3.67;;;1.60;;
71464;SDS011;59274;49.874;9.154;2022-12-29T08:27:11;4.80;;;1.50;;
71464;SDS011;59274;49.874;9.154;2022-12-29T08:29:37;3.37;;;1.43;;
71464;SDS011;59274;49.874;9.154;2022-12-29T08:32:02;4.07;;;1.30;;
71464;SDS011;59274;49.874;9.154;2022-12-29T08:34:29;6.20;;;1.67;;
71464;SDS011;59274;49.874;9.154;2022-12-29T08:36:56;3.83;;;1.40;;
71464;SDS011;59274;49.874;9.154;2022-12-29T08:39:21;5.15;;;1.60;;
71464;SDS011;59274;49.874;9.154;2022-12-29T08:41:46;4.43;;;1.27;;
71464;SDS011;59274;49.874;9.154;2022-12-29T08:44:12;5.80;;;1.50;;
71464;SDS011;59274;49.874;9.154;2022-12-29T08:46:37;4.57;;;1.80;;
71464;SDS011;59274;49.874;9.154;2022-12-29T08:49:03;5.67;;;1.70;;
71464;SDS011;59274;49.874;9.154;2022-12-29T08:51:28;2.85;;;1.33;;
71464;SDS011;59274;49.874;9.154;2022-12-29T08:53:54;5.10;;;1.70;;
71464;SDS011;59274;49.874;9.154;2022-12-29T08:56:19;4.37;;;1.30;;
71464;SDS011;59274;49.874;9.154;2022-12-29T08:58:44;10.43;;;1.30;;
71464;SDS011;59274;49.874;9.154;2022-12-29T09:01:10;4.55;;;1.20;;
71464;SDS011;59274;49.874;9.154;2022-12-29T09:03:35;3.60;;;1.50;;
71464;SDS011;59274;49.874;9.154;2022-12-29T09:06:01;4.50;;;1.50;;
71464;SDS011;59274;49.874;9.154;2022-12-29T09:08:26;2.97;;;1.40;;
71464;SDS011;59274;49.874;9.154;2022-12-29T09:10:52;5.80;;;1.50;;
71464;SDS011;59274;49.874;9.154;2022-12-29T09:13:17;4.40;;;1.50;;
71464;SDS011;59274;49.874;9.154;2022-12-29T09:15:43;5.57;;;1.75;;
71464;SDS011;59274;49.874;9.154;2022-12-29T09:18:09;6.27;;;1.30;;
71464;SDS011;59274;49.874;9.154;2022-12-29T09:20:35;3.65;;;1.40;;
71464;SDS011;59274;49.874;9.154;2022-12-29T09:23:02;5.27;;;1.50;;
71464;SDS011;59274;49.874;9.154;2022-12-29T09:25:27;4.80;;;1.52;;
71464;SDS011;59274;49.874;9.154;2022-12-29T09:27:53;5.65;;;1.50;;
71464;SDS011;59274;49.874;9.154;2022-12-29T09:30:20;4.50;;;1.60;;
71464;SDS011;59274;49.874;9.154;2022-12-29T09:32:47;4.80;;;1.63;;
71464;SDS011;59274;49.874;9.154;2022-12-29T09:35:13;4.53;;;1.65;;
71464;SDS011;59274;49.874;9.154;2022-12-29T09:37:40;5.40;;;1.40;;
71464;SDS011;59274;49.874;9.154;2022-12-29T09:40:06;5.53;;;1.73;;
71464;SDS011;59274;49.874;9.154;2022-12-29T09:45:33;4.15;;;1.40;;
71464;SDS011;59274;49.874;9.154;2022-12-29T09:48:05;3.88;;;1.50;;
71464;SDS011;59274;49.874;9.154;2022-12-29T09:50:39;5.72;;;1.42;;
71464;SDS011;59274;49.874;9.154;2022-12-29T09:53:10;4.27;;;1.47;;
71464;SDS011;59274;49.874;9.154;2022-12-29T09:55:47;4.30;;;1.52;;
71464;SDS011;59274;49.874;9.154;2022-12-29T10:01:02;4.10;;;1.60;;
71464;SDS011;59274;49.874;9.154;2022-12-29T10:03:34;3.95;;;1.65;;
71464;SDS011;59274;49.874;9.154;2022-12-29T10:11:49;3.65;;;1.35;;
71464;SDS011;59274;49.874;9.154;2022-12-29T10:22:32;4.20;;;1.30;;
71464;SDS011;59274;49.874;9.154;2022-12-29T10:25:01;5.60;;;1.60;;
71464;SDS011;59274;49.874;9.154;2022-12-29T10:27:36;3.25;;;1.42;;
71464;SDS011;59274;49.874;9.154;2022-12-29T10:30:02;3.40;;;1.50;;
71464;SDS011;59274;49.874;9.154;2022-12-29T10:32:36;4.63;;;1.40;;
71464;SDS011;59274;49.874;9.154;2022-12-29T10:35:11;3.50;;;1.30;;
71464;SDS011;59274;49.874;9.154;2022-12-29T10:37:58;4.47;;;1.70;;
71464;SDS011;59274;49.874;9.154;2022-12-29T10:40:31;2.78;;;1.27;;
71464;SDS011;59274;49.874;9.154;2022-12-29T10:43:18;3.17;;;1.52;;
71464;SDS011;59274;49.874;9.154;2022-12-29T10:45:44;3.77;;;1.20;;
71464;SDS011;59274;49.874;9.154;2022-12-29T10:48:17;3.67;;;1.50;;
71464;SDS011;59274;49.874;9.154;2022-12-29T10:50:47;5.20;;;1.20;;
71464;SDS011;59274;49.874;9.154;2022-12-29T10:53:21;3.83;;;1.50;;
71464;SDS011;59274;49.874;9.154;2022-12-29T10:55:49;3.03;;;1.40;;
71464;SDS011;59274;49.874;9.154;2022-12-29T10:58:15;3.20;;;1.30;;
71464;SDS011;59274;49.874;9.154;2022-12-29T11:00:41;3.23;;;1.40;;
71464;SDS011;59274;49.874;9.154;2022-12-29T11:03:35;4.40;;;1.45;;
71464;SDS011;59274;49.874;9.154;2022-12-29T11:08:52;2.83;;;1.48;;
71464;SDS011;59274;49.874;9.154;2022-12-29T11:11:25;3.10;;;1.00;;
71464;SDS011;59274;49.874;9.154;2022-12-29T11:13:58;5.00;;;1.63;;
71464;SDS011;59274;49.874;9.154;2022-12-29T11:16:32;5.13;;;1.80;;
71464;SDS011;59274;49.874;9.154;2022-12-29T11:18:59;6.53;;;1.65;;
71464;SDS011;59274;49.874;9.154;2022-12-29T11:21:36;5.05;;;1.70;;
71464;SDS011;59274;49.874;9.154;2022-12-29T11:24:27;3.60;;;1.40;;
71464;SDS011;59274;49.874;9.154;2022-12-29T11:29:45;2.58;;;1.30;;
71464;SDS011;59274;49.874;9.154;2022-12-29T11:32:21;4.47;;;1.70;;
71464;SDS011;59274;49.874;9.154;2022-12-29T11:34:48;3.33;;;0.90;;
71464;SDS011;59274;49.874;9.154;2022-12-29T11:37:18;1.70;;;0.68;;
71464;SDS011;59274;49.874;9.154;2022-12-29T11:39:52;2.47;;;0.60;;
71464;SDS011;59274;49.874;9.154;2022-12-29T11:42:24;1.53;;;0.60;;
71464;SDS011;59274;49.874;9.154;2022-12-29T11:45:05;1.85;;;0.60;;
71464;SDS011;59274;49.874;9.154;2022-12-29T11:47:41;2.08;;;0.70;;
71464;SDS011;59274;49.874;9.154;2022-12-29T11:50:15;3.00;;;0.82;;
71464;SDS011;59274;49.874;9.154;2022-12-29T11:52:43;2.83;;;0.70;;
71464;SDS011;59274;49.874;9.154;2022-12-29T11:55:16;1.43;;;0.90;;
71464;SDS011;59274;49.874;9.154;2022-12-29T11:57:45;2.72;;;0.90;;
71464;SDS011;59274;49.874;9.154;2022-12-29T12:00:21;3.03;;;0.80;;
71464;SDS011;59274;49.874;9.154;2022-12-29T12:03:03;2.30;;;0.90;;
71464;SDS011;59274;49.874;9.154;2022-12-29T12:08:28;4.03;;;1.20;;
71464;SDS011;59274;49.874;9.154;2022-12-29T12:13:34;2.03;;;1.08;;
71464;SDS011;59274;49.874;9.154;2022-12-29T12:16:22;2.22;;;1.23;;
71464;SDS011;59274;49.874;9.154;2022-12-29T12:18:55;4.00;;;1.13;;
71464;SDS011;59274;49.874;9.154;2022-12-29T12:21:38;4.20;;;1.10;;
71464;SDS011;59274;49.874;9.154;2022-12-29T12:29:31;3.45;;;1.40;;
71464;SDS011;59274;49.874;9.154;2022-12-29T12:32:19;2.97;;;0.90;;
71464;SDS011;59274;49.874;9.154;2022-12-29T12:34:50;4.68;;;1.40;;
71464;SDS011;59274;49.874;9.154;2022-12-29T12:43:08;3.30;;;1.13;;
71464;SDS011;59274;49.874;9.154;2022-12-29T12:46:03;2.88;;;1.10;;
71464;SDS011;59274;49.874;9.154;2022-12-29T13:02:53;2.47;;;0.98;;
71464;SDS011;59274;49.874;9.154;2022-12-29T13:16:56;3.83;;;1.38;;
71464;SDS011;59274;49.874;9.154;2022-12-29T13:19:39;2.75;;;1.20;;
71464;SDS011;59274;49.874;9.154;2022-12-29T13:22:13;5.18;;;1.85;;
71464;SDS011;59274;49.874;9.154;2022-12-29T13:25:02;4.43;;;1.30;;
71464;SDS011;59274;49.874;9.154;2022-12-29T13:27:47;3.97;;;1.30;;
71464;SDS011;59274;49.874;9.154;2022-12-29T13:30:46;4.05;;;1.50;;
71464;SDS011;59274;49.874;9.154;2022-12-29T13:36:12;4.50;;;1.38;;
71464;SDS011;59274;49.874;9.154;2022-12-29T13:38:51;3.97;;;1.37;;
71464;SDS011;59274;49.874;9.154;2022-12-29T13:41:31;3.28;;;1.10;;
71464;SDS011;59274;49.874;9.154;2022-12-29T13:44:06;4.38;;;1.30;;
71464;SDS011;59274;49.874;9.154;2022-12-29T13:46:39;3.45;;;1.20;;
71464;SDS011;59274;49.874;9.154;2022-12-29T13:49:15;5.47;;;1.42;;
71464;SDS011;59274;49.874;9.154;2022-12-29T13:51:56;4.97;;;1.40;;
71464;SDS011;59274;49.874;9.154;2022-12-29T13:56:54;5.32;;;1.42;;
71464;SDS011;59274;49.874;9.154;2022-12-29T13:59:36;4.57;;;1.40;;
71464;SDS011;59274;49.874;9.154;2022-12-29T14:07:45;6.03;;;1.40;;
71464;SDS011;59274;49.874;9.154;2022-12-29T14:13:22;2.55;;;1.20;;
71464;SDS011;59274;49.874;9.154;2022-12-29T14:15:52;3.50;;;1.50;;
71464;SDS011;59274;49.874;9.154;2022-12-29T14:18:20;5.73;;;1.70;;
71464;SDS011;59274;49.874;9.154;2022-12-29T14:23:37;3.72;;;1.60;;
71464;SDS011;59274;49.874;9.154;2022-12-29T14:31:00;2.03;;;1.00;;
71464;SDS011;59274;49.874;9.154;2022-12-29T14:33:31;3.58;;;1.00;;
71464;SDS011;59274;49.874;9.154;2022-12-29T14:39:02;3.13;;;1.10;;
71464;SDS011;59274;49.874;9.154;2022-12-29T14:44:19;5.53;;;1.40;;
71464;SDS011;59274;49.874;9.154;2022-12-29T14:49:24;3.33;;;0.90;;
71464;SDS011;59274;49.874;9.154;2022-12-29T14:52:03;3.88;;;1.13;;
71464;SDS011;59274;49.874;9.154;2022-12-29T14:54:47;4.68;;;1.05;;
71464;SDS011;59274;49.874;9.154;2022-12-29T14:57:48;2.10;;;0.90;;
71464;SDS011;59274;49.874;9.154;2022-12-29T15:00:21;3.72;;;1.00;;
71464;SDS011;59274;49.874;9.154;2022-12-29T15:03:04;5.20;;;1.00;;
71464;SDS011;59274;49.874;9.154;2022-12-29T15:05:41;2.70;;;0.98;;
71464;SDS011;59274;49.874;9.154;2022-12-29T15:08:09;3.08;;;0.90;;
71464;SDS011;59274;49.874;9.154;2022-12-29T15:10:47;2.97;;;0.80;;
71464;SDS011;59274;49.874;9.154;2022-12-29T15:13:22;3.10;;;1.02;;
71464;SDS011;59274;49.874;9.154;2022-12-29T15:15:50;4.00;;;1.15;;
71464;SDS011;59274;49.874;9.154;2022-12-29T15:18:23;3.50;;;1.17;;
71464;SDS011;59274;49.874;9.154;2022-12-29T15:20:58;3.73;;;1.10;;
71464;SDS011;59274;49.874;9.154;2022-12-29T15:23:29;3.90;;;1.00;;
71464;SDS011;59274;49.874;9.154;2022-12-29T15:25:58;3.13;;;0.73;;
71464;SDS011;59274;49.874;9.154;2022-12-29T15:28:24;3.45;;;0.98;;
71464;SDS011;59274;49.874;9.154;2022-12-29T15:30:52;4.85;;;1.23;;
71464;SDS011;59274;49.874;9.154;2022-12-29T15:33:27;2.30;;;1.03;;
71464;SDS011;59274;49.874;9.154;2022-12-29T15:35:54;6.95;;;2.28;;
71464;SDS011;59274;49.874;9.154;2022-12-29T15:38:22;5.68;;;1.55;;
71464;SDS011;59274;49.874;9.154;2022-12-29T15:44:14;4.25;;;1.48;;
71464;SDS011;59274;49.874;9.154;2022-12-29T15:46:45;3.17;;;1.10;;
71464;SDS011;59274;49.874;9.154;2022-12-29T15:49:11;2.33;;;0.90;;
71464;SDS011;59274;49.874;9.154;2022-12-29T15:51:40;2.53;;;1.10;;
71464;SDS011;59274;49.874;9.154;2022-12-29T15:54:06;3.27;;;1.00;;
71464;SDS011;59274;49.874;9.154;2022-12-29T15:56:40;4.68;;;1.08;;
71464;SDS011;59274;49.874;9.154;2022-12-29T15:59:21;3.90;;;1.10;;
71464;SDS011;59274;49.874;9.154;2022-12-29T16:01:58;3.45;;;1.08;;
71464;SDS011;59274;49.874;9.154;2022-12-29T16:04:25;6.00;;;1.10;;
71464;SDS011;59274;49.874;9.154;2022-12-29T16:07:03;3.78;;;0.95;;
71464;SDS011;59274;49.874;9.154;2022-12-29T16:09:32;4.00;;;1.60;;
71464;SDS011;59274;49.874;9.154;2022-12-29T16:12:21;4.00;;;1.60;;
71464;SDS011;59274;49.874;9.154;2022-12-29T16:14:52;4.22;;;1.55;;
71464;SDS011;59274;49.874;9.154;2022-12-29T16:17:22;7.17;;;2.00;;
71464;SDS011;59274;49.874;9.154;2022-12-29T16:19:59;4.68;;;1.98;;
71464;SDS011;59274;49.874;9.154;2022-12-29T16:22:33;9.00;;;2.22;;
71464;SDS011;59274;49.874;9.154;2022-12-29T16:25:02;7.70;;;3.05;;
71464;SDS011;59274;49.874;9.154;2022-12-29T16:27:32;9.90;;;4.00;;
71464;SDS011;59274;49.874;9.154;2022-12-29T16:30:05;12.03;;;6.20;;
71464;SDS011;59274;49.874;9.154;2022-12-29T16:32:45;12.68;;;6.13;;
71464;SDS011;59274;49.874;9.154;2022-12-29T16:37:38;13.03;;;6.10;;
71464;SDS011;59274;49.874;9.154;2022-12-29T16:43:03;11.68;;;4.40;;
71464;SDS011;59274;49.874;9.154;2022-12-29T16:50:39;10.57;;;4.13;;
71464;SDS011;59274;49.874;9.154;2022-12-29T16:53:16;13.93;;;4.80;;
71464;SDS011;59274;49.874;9.154;2022-12-29T16:55:57;18.50;;;7.93;;
71464;SDS011;59274;49.874;9.154;2022-12-29T16:58:32;29.85;;;9.35;;
71464;SDS011;59274;49.874;9.154;2022-12-29T17:01:00;20.25;;;7.30;;
71464;SDS011;59274;49.874;9.154;2022-12-29T17:03:39;12.17;;;4.30;;
71464;SDS011;59274;49.874;9.154;2022-12-29T17:06:18;6.45;;;2.33;;
71464;SDS011;59274;49.874;9.154;2022-12-29T17:08:45;7.47;;;2.70;;
71464;SDS011;59274;49.874;9.154;2022-12-29T17:17:10;5.23;;;2.20;;
71464;SDS011;59274;49.874;9.154;2022-12-29T17:19:38;6.60;;;2.47;;
71464;SDS011;59274;49.874;9.154;2022-12-29T17:22:09;7.95;;;2.78;;
71464;SDS011;59274;49.874;9.154;2022-12-29T17:24:46;6.78;;;2.20;;
71464;SDS011;59274;49.874;9.154;2022-12-29T17:27:19;6.03;;;2.20;;
71464;SDS011;59274;49.874;9.154;2022-12-29T17:30:10;10.07;;;3.47;;
71464;SDS011;59274;49.874;9.154;2022-12-29T17:32:39;11.77;;;3.85;;
71464;SDS011;59274;49.874;9.154;2022-12-29T17:35:05;7.00;;;2.30;;
71464;SDS011;59274;49.874;9.154;2022-12-29T17:37:37;8.00;;;2.47;;
71464;SDS011;59274;49.874;9.154;2022-12-29T17:40:03;6.10;;;2.22;;
71464;SDS011;59274;49.874;9.154;2022-12-29T17:42:31;5.47;;;1.80;;
71464;SDS011;59274;49.874;9.154;2022-12-29T17:44:58;6.63;;;2.10;;
71464;SDS011;59274;49.874;9.154;2022-12-29T17:47:25;10.43;;;3.70;;